Time;durP1;ratioP1;P1;durP2;ratioP2;P2;SDS_P1;SDS_P2;PMS_P1;PMS_P2;Temp;Humidity;BMP_temperature;BMP_pressure;BME280_temperature;BME280_humidity;BME280_pressure;Samples;Min_cycle;Max_cycle;Signal;HPM_P1;HPM_P2
2020/12/16 00:00:50;;;;;;;4.42;2.75;;;;;;;3.61;80.07;98493.38;1710776;83;21222;-63
2020/12/16 00:03:18;;;;;;;3.75;2.22;;;;;;;3.63;80.30;98494.55;1698216;84;21167;-63
2020/12/16 00:05:46;;;;;;;2.85;2.55;;;;;;;3.63;80.25;98491.98;1710840;82;21568;-64
2020/12/16 00:08:14;;;;;;;2.83;1.72;;;;;;;3.67;80.16;98495.59;1710789;83;21322;-63
2020/12/16 00:10:42;;;;;;;3.83;2.27;;;;;;;3.73;79.87;98498.28;1710809;83;21283;-63
2020/12/16 00:13:10;;;;;;;5.22;2.85;;;;;;;3.67;80.04;98501.17;1682820;83;21179;-66
2020/12/16 00:15:38;;;;;;;2.67;2.27;;;;;;;3.63;80.28;98502.27;1710632;83;21145;-63
2020/12/16 00:18:07;;;;;;;3.70;2.12;;;;;;;3.63;80.25;98507.40;1710706;83;21301;-63
2020/12/16 00:20:34;;;;;;;3.67;2.00;;;;;;;3.63;80.12;98509.97;1710646;82;21310;-62
2020/12/16 00:23:02;;;;;;;2.98;2.52;;;;;;;3.65;80.11;98512.01;1710603;83;21354;-64
2020/12/16 00:25:30;;;;;;;2.52;2.00;;;;;;;3.63;80.15;98519.78;1710692;83;21148;-64
2020/12/16 00:27:58;;;;;;;2.55;1.82;;;;;;;3.59;80.36;98518.30;1710565;82;21605;-64
2020/12/16 00:30:26;;;;;;;2.20;1.37;;;;;;;3.63;80.18;98519.78;1710788;83;21318;-64
2020/12/16 00:32:54;;;;;;;2.08;1.50;;;;;;;3.59;80.25;98521.32;1710930;83;21172;-64
2020/12/16 00:35:22;;;;;;;2.65;1.98;;;;;;;3.66;79.99;98517.49;1710870;82;21303;-65
2020/12/16 00:37:51;;;;;;;2.92;2.17;;;;;;;3.57;80.08;98512.89;1710727;83;21164;-62
2020/12/16 00:40:19;;;;;;;2.67;1.90;;;;;;;3.58;80.13;98511.98;1710654;83;21243;-65
2020/12/16 00:42:49;;;;;;;3.12;2.05;;;;;;;3.55;80.20;98511.69;1710879;82;21314;-64
2020/12/16 00:45:19;;;;;;;1.85;1.50;;;;;;;3.57;80.23;98511.61;1710654;82;21621;-64
2020/12/16 00:47:47;;;;;;;1.47;0.85;;;;;;;3.54;80.36;98507.45;1710784;83;21302;-64
2020/12/16 00:50:17;;;;;;;3.45;2.00;;;;;;;3.54;80.19;98509.22;1710914;83;21302;-62
2020/12/16 00:52:47;;;;;;;3.17;1.62;;;;;;;3.55;80.23;98512.97;1709914;83;21248;-62
2020/12/16 00:55:16;;;;;;;4.65;2.52;;;;;;;3.47;80.48;98513.02;1698283;84;21155;-62
2020/12/16 00:57:45;;;;;;;3.02;2.33;;;;;;;3.49;80.35;98517.17;1710760;83;21338;-62
2020/12/16 01:00:16;;;;;;;2.42;1.65;;;;;;;3.52;80.23;98508.01;1710601;82;21188;-62
2020/12/16 01:02:48;;;;;;;3.47;2.10;;;;;;;3.44;80.43;98504.20;1710639;83;21183;-66
2020/12/16 01:05:20;;;;;;;2.62;2.02;;;;;;;3.37;80.65;98511.43;1710532;83;21172;-63
2020/12/16 01:07:49;;;;;;;4.72;2.83;;;;;;;3.38;80.73;98510.98;1682519;83;21192;-63
2020/12/16 01:10:18;;;;;;;2.98;1.82;;;;;;;3.33;80.86;98513.34;1710827;83;21719;-63
2020/12/16 01:12:48;;;;;;;4.95;2.77;;;;;;;3.35;80.73;98510.22;1710501;83;21176;-63
2020/12/16 01:15:20;;;;;;;7.05;4.22;;;;;;;3.31;80.91;98505.33;1710594;82;21599;-64
2020/12/16 01:17:51;;;;;;;4.00;2.55;;;;;;;3.31;81.05;98505.33;1710492;83;21164;-64
2020/12/16 01:20:21;;;;;;;8.20;5.47;;;;;;;3.32;80.91;98503.98;1709891;83;21212;-64
2020/12/16 01:22:50;;;;;;;4.20;3.37;;;;;;;3.26;81.30;98495.34;1709727;83;21148;-63
2020/12/16 01:25:20;;;;;;;6.42;4.35;;;;;;;3.23;81.38;98492.92;1710699;83;21173;-64
2020/12/16 01:27:55;;;;;;;9.85;6.05;;;;;;;3.26;81.25;98489.38;1710477;83;21179;-63
2020/12/16 01:30:24;;;;;;;8.38;5.25;;;;;;;3.12;81.89;98494.42;1710661;83;21553;-65
2020/12/16 01:32:53;;;;;;;6.87;5.30;;;;;;;3.26;81.25;98500.48;1710687;83;21160;-63
2020/12/16 01:35:23;;;;;;;4.45;3.45;;;;;;;3.32;81.13;98499.30;1710829;83;21201;-63
2020/12/16 01:37:56;;;;;;;4.58;2.45;;;;;;;3.31;81.25;98494.61;1710808;83;21331;-63
2020/12/16 01:40:26;;;;;;;4.62;2.65;;;;;;;3.31;81.03;98504.05;1710519;83;21274;-63
2020/12/16 01:42:54;;;;;;;3.17;1.95;;;;;;;3.33;80.96;98504.81;1710645;83;21671;-64
2020/12/16 01:45:24;;;;;;;4.00;2.22;;;;;;;3.30;81.00;98501.97;1682709;82;21204;-63
2020/12/16 01:47:54;;;;;;;2.52;1.60;;;;;;;3.30;80.60;98501.14;1710637;83;21153;-63
2020/12/16 01:50:26;;;;;;;2.50;1.67;;;;;;;3.31;80.63;98489.93;1710765;82;21326;-63
2020/12/16 01:52:57;;;;;;;2.90;1.98;;;;;;;3.31;80.70;98484.34;1710730;83;21178;-63
2020/12/16 01:55:30;;;;;;;3.05;2.05;;;;;;;3.32;80.94;98487.74;1707903;82;21173;-64
2020/12/16 01:58:05;;;;;;;2.52;2.12;;;;;;;3.29;80.81;98490.48;1710318;83;21159;-63
2020/12/16 02:00:36;;;;;;;4.00;2.47;;;;;;;3.23;80.97;98497.26;1710501;83;21212;-65
2020/12/16 02:03:07;;;;;;;2.77;2.08;;;;;;;3.25;80.82;98495.42;1682968;83;21173;-65
2020/12/16 02:05:46;;;;;;;4.37;1.92;;;;;;;3.32;80.50;98499.30;1707747;82;21172;-63
2020/12/16 02:08:19;;;;;;;5.15;2.33;;;;;;;3.34;80.29;98503.45;1710404;82;21153;-64
2020/12/16 02:10:49;;;;;;;2.40;1.90;;;;;;;3.28;80.50;98499.09;1710779;82;21212;-63
2020/12/16 02:13:17;;;;;;;2.60;1.72;;;;;;;3.22;80.91;98501.56;1710799;83;21307;-64
2020/12/16 02:15:47;;;;;;;3.02;1.60;;;;;;;3.26;80.83;98503.50;1710396;83;21156;-65
2020/12/16 02:18:17;;;;;;;3.22;1.50;;;;;;;3.30;80.68;98498.12;1710625;83;21166;-62
2020/12/16 02:20:47;;;;;;;2.72;2.50;;;;;;;3.37;80.48;98500.33;1710830;82;21318;-65
2020/12/16 02:23:21;;;;;;;2.67;1.67;;;;;;;3.33;80.61;98497.11;1710719;82;21727;-66
2020/12/16 02:25:51;;;;;;;3.00;2.35;;;;;;;3.33;80.29;98494.54;1710677;83;21172;-66
2020/12/16 02:28:19;;;;;;;2.05;1.40;;;;;;;3.30;80.15;98490.41;1710520;83;21180;-65
2020/12/16 02:30:48;;;;;;;1.95;1.60;;;;;;;3.33;79.89;98495.38;1710741;83;21378;-66
2020/12/16 02:33:24;;;;;;;1.98;1.75;;;;;;;3.36;79.90;98499.50;1702780;84;21172;-66
2020/12/16 02:35:53;;;;;;;2.35;1.62;;;;;;;3.40;79.73;98495.02;1710190;83;21176;-63
2020/12/16 02:38:24;;;;;;;3.27;1.72;;;;;;;3.42;79.72;98491.92;1710659;83;21314;-65
2020/12/16 02:40:52;;;;;;;8.43;2.05;;;;;;;3.46;79.94;98494.24;1710922;82;21396;-64
2020/12/16 02:43:21;;;;;;;1.25;1.10;;;;;;;3.39;80.22;98487.77;1710866;83;21319;-65
2020/12/16 02:45:49;;;;;;;2.37;1.77;;;;;;;3.44;80.03;98493.94;1710807;83;21306;-65
2020/12/16 02:48:19;;;;;;;3.37;1.77;;;;;;;3.48;79.87;98492.86;1710771;83;21298;-65
2020/12/16 02:50:47;;;;;;;2.15;1.62;;;;;;;3.45;79.60;98495.60;1710907;84;21331;-65
2020/12/16 02:53:15;;;;;;;6.22;1.82;;;;;;;3.39;80.03;98488.22;1710882;82;21309;-66
2020/12/16 02:56:02;;;;;;;3.17;1.37;;;;;;;3.42;79.91;98491.92;1710706;83;21212;-65
2020/12/16 02:58:31;;;;;;;1.45;1.30;;;;;;;3.50;79.33;98496.98;1708899;82;21575;-65
2020/12/16 03:01:00;;;;;;;1.90;1.20;;;;;;;3.47;79.28;98493.76;1710834;83;21309;-64
2020/12/16 03:03:39;;;;;;;3.52;2.10;;;;;;;3.50;78.84;98494.41;1707423;83;21153;-63
2020/12/16 03:06:25;;;;;;;2.35;1.70;;;;;;;3.38;79.43;98500.70;1710804;82;21322;-64
2020/12/16 03:08:55;;;;;;;3.22;1.98;;;;;;;3.44;79.29;98497.33;1710480;82;21314;-65
2020/12/16 03:11:25;;;;;;;1.98;1.65;;;;;;;3.48;79.37;98494.14;1710548;83;21169;-65
2020/12/16 03:13:55;;;;;;;2.55;1.80;;;;;;;3.47;79.26;98501.46;1711017;83;21180;-65
2020/12/16 03:16:23;;;;;;;2.25;1.90;;;;;;;3.49;79.29;98497.91;1712126;82;21166;-65
2020/12/16 03:18:53;;;;;;;2.65;1.90;;;;;;;3.47;79.28;98497.61;1709595;83;21719;-65
2020/12/16 03:21:24;;;;;;;2.95;2.10;;;;;;;3.47;79.08;98501.46;1710638;83;21250;-65
2020/12/16 03:23:54;;;;;;;2.50;1.77;;;;;;;3.55;79.00;98500.58;1709839;83;21288;-65
2020/12/16 03:26:41;;;;;;;3.52;2.15;;;;;;;3.51;79.00;98505.52;1710941;83;21152;-64
2020/12/16 03:29:17;;;;;;;4.03;1.70;;;;;;;3.44;79.24;98501.64;1706395;82;21257;-65
2020/12/16 03:32:11;;;;;;;5.72;2.25;;;;;;;3.47;79.35;98505.31;1702948;82;21230;-64
2020/12/16 03:34:41;;;;;;;2.90;1.42;;;;;;;3.51;78.94;98507.63;1708543;83;21207;-66
2020/12/16 03:37:14;;;;;;;3.15;1.77;;;;;;;3.48;78.78;98506.98;1710900;83;21154;-64
2020/12/16 03:39:44;;;;;;;3.02;2.10;;;;;;;3.52;78.74;98508.01;1710747;83;21166;-66
2020/12/16 03:42:12;;;;;;;8.35;2.75;;;;;;;3.51;78.71;98501.66;1711043;83;21178;-65
2020/12/16 03:44:40;;;;;;;3.37;1.92;;;;;;;3.41;79.34;98505.67;1712007;83;21316;-68
2020/12/16 03:47:09;;;;;;;2.70;1.80;;;;;;;3.44;79.19;98506.32;1711832;83;21296;-65
2020/12/16 03:49:37;;;;;;;2.72;2.08;;;;;;;3.36;79.04;98511.05;1711725;83;21166;-66
2020/12/16 03:52:07;;;;;;;2.65;1.85;;;;;;;3.38;78.90;98506.67;1710874;83;21316;-64
2020/12/16 03:54:50;;;;;;;4.65;2.72;;;;;;;3.38;79.06;98514.37;1710581;83;21158;-65
2020/12/16 03:57:25;;;;;;;4.45;2.55;;;;;;;3.33;79.26;98519.76;1665337;83;21619;-65
2020/12/16 04:00:12;;;;;;;2.67;2.25;;;;;;;3.26;79.44;98521.02;1710315;83;21178;-65
2020/12/16 04:02:47;;;;;;;2.80;1.60;;;;;;;3.31;79.31;98524.58;1707530;83;21158;-65
2020/12/16 04:05:26;;;;;;;2.85;1.62;;;;;;;3.29;79.31;98513.14;1738573;82;21321;-64
2020/12/16 04:07:53;;;;;;;3.20;2.08;;;;;;;3.31;79.09;98520.73;1740707;82;21162;-64
2020/12/16 04:10:42;;;;;;;2.92;1.57;;;;;;;3.31;78.94;98518.17;1694396;84;21155;-65
2020/12/16 04:13:14;;;;;;;2.60;1.92;;;;;;;3.20;79.43;98526.91;1709273;83;21177;-65
2020/12/16 04:15:45;;;;;;;2.37;2.00;;;;;;;3.19;79.56;98528.65;1696713;84;21301;-65
2020/12/16 04:18:13;;;;;;;3.05;1.62;;;;;;;3.24;79.29;98526.67;1678882;83;21194;-65
2020/12/16 04:20:41;;;;;;;4.97;2.30;;;;;;;3.28;79.25;98524.77;1664233;84;21139;-64
2020/12/16 04:23:11;;;;;;;5.72;2.50;;;;;;;3.28;79.34;98521.74;1708777;83;21205;-64
2020/12/16 04:25:42;;;;;;;4.35;2.00;;;;;;;3.20;80.16;98525.18;1696209;84;21626;-64
2020/12/16 04:28:11;;;;;;;3.50;2.30;;;;;;;3.21;79.92;98526.02;1708671;83;21147;-64
2020/12/16 04:30:40;;;;;;;3.47;2.22;;;;;;;3.19;79.73;98524.80;1664382;84;21167;-69
2020/12/16 04:33:08;;;;;;;2.80;1.70;;;;;;;3.19;79.76;98523.52;1709012;83;21177;-64
2020/12/16 04:35:37;;;;;;;2.08;1.20;;;;;;;3.21;79.63;98526.84;1696347;84;21289;-65
2020/12/16 04:38:05;;;;;;;3.70;2.00;;;;;;;3.22;79.70;98535.38;1709094;83;21175;-64
2020/12/16 04:40:35;;;;;;;3.55;2.10;;;;;;;3.20;79.62;98532.88;1708869;82;21150;-64
2020/12/16 04:43:12;;;;;;;2.45;1.82;;;;;;;3.15;79.96;98540.47;1695677;84;21294;-64
2020/12/16 04:45:42;;;;;;;2.70;2.00;;;;;;;3.13;80.10;98537.14;1708924;83;21174;-64
2020/12/16 04:48:14;;;;;;;2.92;1.92;;;;;;;3.14;80.03;98543.94;1708952;82;21135;-64
2020/12/16 04:50:45;;;;;;;3.72;1.82;;;;;;;3.12;80.27;98542.73;1696364;83;21623;-64
2020/12/16 04:53:19;;;;;;;3.95;2.60;;;;;;;3.10;80.66;98542.00;1708926;82;21212;-64
2020/12/16 04:55:49;;;;;;;4.87;3.20;;;;;;;3.10;80.78;98542.45;1707552;83;21547;-64
2020/12/16 04:58:24;;;;;;;2.50;1.92;;;;;;;3.11;80.71;98551.81;1669563;84;21222;-63
2020/12/16 05:00:54;;;;;;;4.28;2.75;;;;;;;3.05;80.51;98555.97;1708894;83;21174;-64
2020/12/16 05:03:30;;;;;;;;;;;;;;;3.11;80.23;98556.94;1710042;83;21131;-66
2020/12/16 05:06:00;;;;;;;2.72;1.80;;;;;;;3.13;80.05;98555.94;1696440;84;20150;-64
2020/12/16 05:08:29;;;;;;;3.27;1.92;;;;;;;3.11;80.31;98556.46;1708708;81;21169;-65
2020/12/16 05:10:57;;;;;;;4.08;1.90;;;;;;;3.13;80.36;98557.67;1701315;83;21146;-63
2020/12/16 05:13:27;;;;;;;2.25;1.60;;;;;;;3.15;80.14;98562.28;1701373;83;21154;-63
2020/12/16 05:16:00;;;;;;;3.62;2.45;;;;;;;3.20;80.05;98562.84;1701259;83;21123;-64
2020/12/16 05:18:28;;;;;;;2.12;1.62;;;;;;;3.17;80.71;98559.17;1701193;83;21162;-64
2020/12/16 05:21:00;;;;;;;3.15;2.15;;;;;;;3.22;80.52;98559.75;1701306;83;21127;-63
2020/12/16 05:23:37;;;;;;;3.17;2.02;;;;;;;3.24;80.35;98565.17;1701326;83;21155;-66
2020/12/16 05:26:09;;;;;;;2.52;1.57;;;;;;;3.16;80.32;98565.20;1700787;83;21150;-65
2020/12/16 05:28:46;;;;;;;4.33;2.52;;;;;;;3.15;80.34;98560.52;1701335;83;21147;-65
2020/12/16 05:31:15;;;;;;;3.30;2.08;;;;;;;3.22;79.93;98564.44;1706707;81;21235;-65
2020/12/16 05:33:47;;;;;;;3.60;1.98;;;;;;;3.19;80.24;98565.86;1707433;82;21278;-66
2020/12/16 05:36:32;;;;;;;2.17;1.27;;;;;;;3.23;80.02;98567.84;1702738;83;21161;-65
2020/12/16 05:39:02;;;;;;;5.37;2.12;;;;;;;3.19;80.19;98562.02;1715750;82;21177;-65
2020/12/16 05:41:33;;;;;;;3.75;2.12;;;;;;;3.22;80.66;98565.72;1710255;82;21505;-62
2020/12/16 05:44:22;;;;;;;4.37;1.90;;;;;;;3.25;80.53;98565.55;1697666;83;21170;-64
2020/12/16 05:46:51;;;;;;;4.30;2.40;;;;;;;3.24;80.49;98575.44;1726504;81;21185;-65
2020/12/16 05:49:28;;;;;;;3.72;2.50;;;;;;;3.24;80.19;98569.02;1708644;82;21154;-66
2020/12/16 05:52:00;;;;;;;3.58;2.25;;;;;;;3.22;80.23;98569.57;1711313;81;21168;-65
2020/12/16 05:54:29;;;;;;;2.98;2.00;;;;;;;3.24;80.28;98568.19;1694973;83;21297;-65
2020/12/16 05:57:24;;;;;;;3.58;2.10;;;;;;;3.26;80.20;98571.52;1685233;84;21178;-66
2020/12/16 06:02:56;;;;;;;4.67;2.35;;;;;;;3.38;79.76;98563.61;1767266;79;23277;-66
2020/12/16 06:05:24;;;;;;;8.00;3.70;;;;;;;3.35;79.60;98568.43;1736105;82;21163;-66
2020/12/16 06:07:52;;;;;;;5.67;2.42;;;;;;;3.34;80.10;98571.48;1744914;82;21136;-64
2020/12/16 06:10:20;;;;;;;6.78;2.92;;;;;;;3.33;79.75;98572.38;1753750;82;21160;-67
2020/12/16 06:12:48;;;;;;;5.87;3.15;;;;;;;3.20;79.59;98576.96;1724691;82;21553;-65
2020/12/16 06:15:17;;;;;;;4.22;2.77;;;;;;;3.14;79.77;98570.89;1753743;82;21161;-64
2020/12/16 06:17:48;;;;;;;2.90;1.75;;;;;;;3.18;81.37;98582.20;1753814;82;21151;-64
2020/12/16 06:20:20;;;;;;;3.20;2.33;;;;;;;3.22;80.54;98581.58;1753676;82;21152;-64
2020/12/16 06:22:49;;;;;;;6.22;3.15;;;;;;;3.19;80.14;98576.13;1753706;81;21573;-65
2020/12/16 06:25:18;;;;;;;2.98;2.15;;;;;;;3.16;80.20;98582.72;1753548;82;21172;-67
2020/12/16 06:27:50;;;;;;;5.30;2.62;;;;;;;3.16;79.96;98587.84;1753833;82;21159;-65
2020/12/16 06:30:29;;;;;;;5.37;2.58;;;;;;;3.21;80.01;98582.02;1753758;81;21155;-68
2020/12/16 06:33:18;;;;;;;4.58;2.65;;;;;;;3.21;80.19;98574.33;1752990;81;21171;-65
2020/12/16 06:35:47;;;;;;;2.92;2.27;;;;;;;3.28;80.08;98582.06;1731468;82;21588;-64
2020/12/16 06:38:18;;;;;;;4.17;2.40;;;;;;;3.26;80.16;98588.20;1753734;82;21155;-65
2020/12/16 06:40:50;;;;;;;4.97;2.87;;;;;;;3.30;80.08;98590.52;1753755;82;21124;-65
2020/12/16 06:43:35;;;;;;;4.87;2.98;;;;;;;3.34;79.60;98586.05;1753633;82;21159;-65
2020/12/16 06:46:33;;;;;;;6.15;3.60;;;;;;;3.34;79.85;98587.34;1753686;81;21177;-65
2020/12/16 06:49:04;;;;;;;4.55;2.58;;;;;;;3.39;79.67;98589.63;1753948;82;21148;-65
2020/12/16 06:51:47;;;;;;;4.35;1.92;;;;;;;3.35;79.48;98585.95;1753902;80;21148;-64
2020/12/16 06:54:18;;;;;;;4.25;3.10;;;;;;;3.37;79.46;98582.48;1753633;82;21121;-64
2020/12/16 06:56:51;;;;;;;5.28;2.77;;;;;;;3.38;79.61;98586.26;1753915;81;21160;-67
2020/12/16 06:59:49;;;;;;;4.00;2.83;;;;;;;3.39;79.18;98588.34;1724640;82;21155;-64
2020/12/16 07:05:40;;;;;;;4.37;2.95;;;;;;;3.49;78.36;98592.09;1819820;79;23068;-65
2020/12/16 07:08:08;;;;;;;5.05;1.85;;;;;;;3.43;78.69;98595.80;1728334;83;21338;-65
2020/12/16 07:10:47;;;;;;;2.27;1.92;;;;;;;3.50;78.65;98595.84;1758501;81;21616;-64
2020/12/16 07:13:20;;;;;;;3.55;1.87;;;;;;;3.48;78.03;98596.39;1758422;81;21175;-69
2020/12/16 07:16:14;;;;;;;4.53;2.95;;;;;;;3.46;78.07;98593.09;1758339;81;21350;-65
2020/12/16 07:18:47;;;;;;;5.87;2.65;;;;;;;3.50;78.23;98594.55;1673936;85;21183;-63
2020/12/16 07:21:22;;;;;;;5.97;2.85;;;;;;;3.45;78.46;98597.02;1678135;85;21195;-64
2020/12/16 07:24:29;;;;;;;4.92;3.17;;;;;;;3.48;78.15;98598.13;1702099;84;21164;-64
2020/12/16 07:27:00;;;;;;;5.33;2.52;;;;;;;3.43;78.67;98597.09;1638123;87;21191;-63
2020/12/16 07:29:40;;;;;;;5.47;2.90;;;;;;;3.40;79.55;98600.28;1611298;88;21608;-64
2020/12/16 07:32:32;;;;;;;3.72;2.65;;;;;;;3.48;78.57;98600.70;1638141;88;21198;-64
2020/12/16 07:35:02;;;;;;;3.37;2.70;;;;;;;3.41;79.45;98599.37;1627164;87;21603;-63
2020/12/16 07:37:52;;;;;;;5.12;2.87;;;;;;;3.42;79.68;98600.59;1627245;87;21151;-65
2020/12/16 07:40:22;;;;;;;6.75;3.35;;;;;;;3.48;79.30;98593.82;1639734;87;21606;-65
2020/12/16 07:42:50;;;;;;;9.75;3.45;;;;;;;3.46;79.53;98598.68;1639649;87;21184;-64
2020/12/16 07:45:18;;;;;;;3.17;2.08;;;;;;;3.51;79.74;98590.25;1639787;87;21193;-64
2020/12/16 07:47:46;;;;;;;2.72;1.47;;;;;;;3.55;79.00;98586.16;1639199;87;21301;-64
2020/12/16 07:50:14;;;;;;;6.53;3.47;;;;;;;3.55;78.92;98586.16;1636694;87;21156;-66
2020/12/16 07:52:44;;;;;;;6.20;4.30;;;;;;;3.54;79.14;98586.25;1638245;87;21183;-67
2020/12/16 07:55:13;;;;;;;13.70;6.75;;;;;;;3.60;78.91;98582.88;1612182;87;21633;-65
2020/12/16 07:57:41;;;;;;;8.28;4.05;;;;;;;3.64;78.73;98583.09;1638397;87;21611;-65
2020/12/16 08:00:10;;;;;;;4.67;3.10;;;;;;;3.62;79.09;98584.09;1638206;87;21192;-65
2020/12/16 08:02:44;;;;;;;4.58;2.60;;;;;;;3.70;78.99;98586.59;1638159;87;21632;-66
2020/12/16 08:05:14;;;;;;;3.70;2.45;;;;;;;3.68;78.33;98585.86;1636375;87;21155;-66
2020/12/16 08:07:42;;;;;;;5.42;2.80;;;;;;;3.62;78.19;98590.03;1631928;87;21632;-66
2020/12/16 08:10:10;;;;;;;4.50;3.17;;;;;;;3.59;78.38;98595.80;1615253;87;21687;-65
2020/12/16 08:12:43;;;;;;;3.62;2.30;;;;;;;3.49;78.76;98591.64;1630692;87;21199;-70
2020/12/16 08:15:38;;;;;;;4.53;3.47;;;;;;;3.56;78.80;98584.42;1635955;87;21167;-63
2020/12/16 08:18:08;;;;;;;3.62;2.55;;;;;;;3.53;79.15;98590.56;1734225;83;21603;-64
2020/12/16 08:20:36;;;;;;;3.65;2.47;;;;;;;3.62;78.79;98599.02;1733940;83;21711;-65
2020/12/16 08:23:04;;;;;;;3.85;2.20;;;;;;;3.66;78.18;98594.55;1734168;83;21227;-64
2020/12/16 08:25:32;;;;;;;3.60;2.12;;;;;;;3.40;78.32;98599.83;1734056;83;21297;-65
2020/12/16 08:27:59;;;;;;;6.97;2.35;;;;;;;3.38;78.64;98606.80;1733816;83;21311;-64
2020/12/16 08:30:29;;;;;;;2.65;2.37;;;;;;;3.56;78.36;98599.37;1733859;83;21345;-64
2020/12/16 08:33:13;;;;;;;7.83;2.52;;;;;;;3.73;80.08;98604.88;1733919;83;21338;-66
2020/12/16 08:36:04;;;;;;;3.25;2.55;;;;;;;3.73;78.53;98599.29;1734151;83;21309;-65
2020/12/16 08:38:43;;;;;;;2.90;2.45;;;;;;;3.73;77.81;98601.02;1733858;83;21298;-64
2020/12/16 08:41:14;;;;;;;2.20;1.85;;;;;;;3.68;77.95;98603.02;1733906;83;21301;-64
2020/12/16 08:43:43;;;;;;;3.20;1.67;;;;;;;3.83;77.85;98600.42;1733892;83;21723;-64
2020/12/16 08:46:19;;;;;;;4.53;2.25;;;;;;;3.85;77.15;98600.80;1733888;83;21164;-64
2020/12/16 08:48:54;;;;;;;2.92;1.92;;;;;;;3.88;77.48;98604.02;1733823;83;21663;-65
2020/12/16 08:51:26;;;;;;;2.33;1.50;;;;;;;3.78;76.78;98599.84;1729706;83;21206;-66
2020/12/16 08:54:00;;;;;;;2.00;1.72;;;;;;;3.87;76.79;98608.78;1712377;83;21166;-67
2020/12/16 08:56:54;;;;;;;3.25;2.08;;;;;;;4.06;76.64;98604.72;1679967;84;21738;-66
2020/12/16 08:59:28;;;;;;;3.22;1.87;;;;;;;4.08;76.29;98597.31;1761393;81;21228;-67
2020/12/16 09:02:06;;;;;;;2.67;1.90;;;;;;;3.95;75.68;98599.36;1729045;83;21160;-68
2020/12/16 09:04:37;;;;;;;4.87;2.40;;;;;;;3.70;76.99;98590.89;1716836;83;21192;-67
2020/12/16 09:07:11;;;;;;;6.10;3.05;;;;;;;3.91;77.09;98597.42;1765947;81;21282;-67
2020/12/16 09:09:50;;;;;;;3.45;2.52;;;;;;;4.01;76.79;98599.83;1729218;82;21635;-67
2020/12/16 09:12:23;;;;;;;5.37;3.03;;;;;;;3.91;76.40;98600.45;1735045;82;21156;-69
2020/12/16 09:14:58;;;;;;;3.27;2.25;;;;;;;4.07;76.47;98590.51;1739396;82;21168;-67
2020/12/16 09:17:29;;;;;;;3.30;2.17;;;;;;;4.22;76.20;98586.23;1739632;82;21372;-69
2020/12/16 09:19:58;;;;;;;7.90;2.72;;;;;;;4.19;75.58;98577.41;1739396;82;21152;-69
2020/12/16 09:22:29;;;;;;;7.83;3.55;;;;;;;4.16;75.60;98577.59;1739328;82;21616;-69
2020/12/16 09:25:00;;;;;;;4.42;2.12;;;;;;;4.12;75.52;98575.66;1739204;82;21163;-69
2020/12/16 09:27:29;;;;;;;4.42;2.37;;;;;;;4.14;75.79;98567.84;1739173;82;21594;-69
2020/12/16 09:29:57;;;;;;;3.35;2.37;;;;;;;4.33;75.60;98570.17;1739511;82;21151;-69
2020/12/16 09:32:27;;;;;;;3.80;2.62;;;;;;;4.41;75.02;98563.67;1736541;82;21167;-69
2020/12/16 09:34:57;;;;;;;5.12;2.10;;;;;;;4.32;74.07;98564.20;1728154;83;21619;-67
2020/12/16 09:37:55;;;;;;;3.87;2.92;;;;;;;4.17;74.43;98561.23;1717045;83;21206;-68
2020/12/16 09:40:26;;;;;;;3.45;2.12;;;;;;;4.19;75.21;98560.70;1733546;82;21587;-68
2020/12/16 09:43:08;;;;;;;3.40;2.35;;;;;;;4.22;74.99;98548.50;1640278;86;21164;-69
2020/12/16 09:45:36;;;;;;;4.03;2.33;;;;;;;4.37;74.60;98551.91;1700277;84;21172;-67
2020/12/16 09:48:04;;;;;;;3.37;2.10;;;;;;;4.50;75.12;98545.59;1700474;83;21221;-67
2020/12/16 09:50:34;;;;;;;4.12;2.77;;;;;;;4.36;75.21;98537.87;1700234;83;21167;-68
2020/12/16 09:53:06;;;;;;;11.50;4.92;;;;;;;4.47;74.75;98544.50;1700168;83;21192;-66
2020/12/16 09:55:54;;;;;;;5.00;2.85;;;;;;;4.55;74.80;98538.45;1699446;83;21203;-67
2020/12/16 09:58:27;;;;;;;5.92;2.15;;;;;;;4.47;74.55;98540.19;1650637;86;22473;-67
2020/12/16 10:00:55;;;;;;;5.15;2.40;;;;;;;4.58;74.45;98536.52;1654484;86;21156;-66
2020/12/16 10:03:24;;;;;;;5.17;2.15;;;;;;;4.53;74.34;98536.41;1656800;87;21227;-66
2020/12/16 10:05:52;;;;;;;5.08;2.40;;;;;;;4.61;74.51;98538.06;1661594;85;21183;-68
2020/12/16 10:08:20;;;;;;;4.03;2.65;;;;;;;4.60;74.30;98531.26;1671051;86;21203;-66
2020/12/16 10:10:48;;;;;;;3.45;2.45;;;;;;;4.59;74.36;98523.20;1671176;86;21171;-67
2020/12/16 10:13:21;;;;;;;5.30;3.37;;;;;;;4.58;74.43;98526.22;1670265;86;21587;-67
2020/12/16 10:15:49;;;;;;;4.15;2.80;;;;;;;4.83;73.83;98529.87;1671149;86;21174;-66
2020/12/16 10:18:17;;;;;;;5.97;3.35;;;;;;;4.89;73.20;98518.77;1671177;85;21424;-66
2020/12/16 10:20:45;;;;;;;6.28;3.33;;;;;;;5.07;73.61;98511.64;1671186;86;21172;-68
2020/12/16 10:23:13;;;;;;;3.75;2.42;;;;;;;5.14;73.12;98509.88;1671063;86;21215;-67
2020/12/16 10:25:41;;;;;;;5.92;2.98;;;;;;;5.37;72.82;98507.63;1669106;86;22450;-66
2020/12/16 10:28:14;;;;;;;4.05;2.67;;;;;;;5.16;72.92;98501.61;1653603;86;21231;-66
2020/12/16 10:30:42;;;;;;;4.75;3.30;;;;;;;5.33;72.50;98491.52;1656789;87;21144;-64
2020/12/16 10:33:10;;;;;;;7.05;3.65;;;;;;;5.45;72.21;98498.47;1656957;86;21160;-65
2020/12/16 10:35:41;;;;;;;6.40;2.67;;;;;;;5.50;71.95;98494.31;1656896;86;21179;-66
2020/12/16 10:38:10;;;;;;;5.10;3.30;;;;;;;5.66;71.82;98494.98;1656818;86;21179;-65
2020/12/16 10:40:40;;;;;;;4.28;3.30;;;;;;;5.67;70.73;98496.19;1656872;86;21631;-66
2020/12/16 10:43:08;;;;;;;7.90;1.92;;;;;;;5.48;71.33;98504.73;1656831;86;21175;-65
2020/12/16 10:45:37;;;;;;;51.53;11.18;;;;;;;5.61;71.17;98502.17;1656733;86;21200;-66
2020/12/16 10:48:05;;;;;;;36.13;13.50;;;;;;;5.55;71.51;98498.27;1656847;86;21600;-65
2020/12/16 10:50:33;;;;;;;18.60;9.05;;;;;;;5.68;71.85;98491.86;1656892;86;21247;-66
2020/12/16 10:53:02;;;;;;;12.05;5.42;;;;;;;5.84;71.27;98492.49;1657191;87;21183;-66
2020/12/16 10:55:30;;;;;;;6.80;3.60;;;;;;;6.01;71.81;98502.56;1657080;86;21184;-65
2020/12/16 10:57:58;;;;;;;6.35;4.10;;;;;;;6.10;70.01;98500.68;1649717;86;21256;-67
2020/12/16 11:00:26;;;;;;;7.03;3.92;;;;;;;6.18;70.24;98505.33;1647700;87;21604;-66
2020/12/16 11:02:54;;;;;;;4.72;2.90;;;;;;;6.19;69.57;98506.49;1648386;87;21604;-67
2020/12/16 11:05:22;;;;;;;7.20;3.37;;;;;;;6.08;70.00;98501.69;1648625;87;21280;-67
2020/12/16 11:07:50;;;;;;;11.18;6.45;;;;;;;6.11;71.67;98505.34;1648510;87;21180;-66
2020/12/16 11:10:18;;;;;;;10.18;5.28;;;;;;;6.03;69.81;98492.97;1648270;86;21202;-65
2020/12/16 11:12:46;;;;;;;10.45;5.17;;;;;;;6.13;69.87;98489.33;1647719;87;21266;-66
2020/12/16 11:15:15;;;;;;;9.45;4.92;;;;;;;6.28;70.19;98482.31;1647650;86;21177;-65
2020/12/16 11:17:43;;;;;;;6.35;3.72;;;;;;;6.47;70.62;98488.70;1647681;86;21197;-65
2020/12/16 11:20:11;;;;;;;6.28;3.37;;;;;;;6.41;68.11;98484.44;1647569;86;21214;-66
2020/12/16 11:22:39;;;;;;;4.67;2.33;;;;;;;6.44;68.51;98481.17;1647696;86;21172;-66
2020/12/16 11:25:07;;;;;;;5.62;3.08;;;;;;;6.59;69.83;98489.16;1647584;87;21204;-65
2020/12/16 11:27:35;;;;;;;9.25;4.08;;;;;;;6.62;69.04;98486.82;1639519;87;21557;-67
2020/12/16 11:30:03;;;;;;;9.25;3.92;;;;;;;6.49;67.96;98483.45;1633185;87;21193;-66
2020/12/16 11:32:34;;;;;;;6.58;3.52;;;;;;;6.41;68.19;98489.59;1633103;87;21239;-67
2020/12/16 11:35:02;;;;;;;7.15;4.03;;;;;;;6.52;68.39;98484.52;1633150;87;21609;-66
2020/12/16 11:37:30;;;;;;;5.50;3.30;;;;;;;6.38;68.14;98479.48;1633311;87;21244;-66
2020/12/16 11:40:00;;;;;;;6.12;3.45;;;;;;;6.50;68.66;98475.58;1633954;87;21188;-66
2020/12/16 11:42:28;;;;;;;7.03;3.98;;;;;;;6.54;67.89;98481.36;1644607;87;21307;-66
2020/12/16 11:44:58;;;;;;;6.00;2.77;;;;;;;6.51;68.15;98484.16;1642128;87;21201;-66
2020/12/16 11:47:26;;;;;;;7.72;4.22;;;;;;;6.64;68.69;98486.27;1644170;87;21787;-66
2020/12/16 11:49:54;;;;;;;8.68;4.15;;;;;;;6.66;68.91;98489.09;1632387;87;21196;-65
2020/12/16 11:52:21;;;;;;;7.67;3.45;;;;;;;6.68;68.34;98498.86;1636094;87;21187;-67
2020/12/16 11:54:51;;;;;;;7.10;3.80;;;;;;;6.69;68.87;98497.11;1636171;87;21148;-67
2020/12/16 11:57:22;;;;;;;8.98;4.33;;;;;;;6.65;68.06;98496.47;1636388;87;21221;-67
2020/12/16 11:59:50;;;;;;;9.35;4.53;;;;;;;6.52;68.14;98490.97;1637338;87;21174;-67
2020/12/16 12:02:18;;;;;;;7.50;4.20;;;;;;;6.40;68.90;98495.67;1640155;86;21179;-67
2020/12/16 12:04:46;;;;;;;8.30;4.05;;;;;;;6.18;69.00;98495.84;1642099;86;21578;-65
2020/12/16 12:07:14;;;;;;;7.03;4.42;;;;;;;6.14;69.50;98493.56;1644736;86;21148;-65
2020/12/16 12:10:00;;;;;;;5.83;3.85;;;;;;;6.11;69.64;98490.70;1640297;87;21758;-66